createdAt,value
2022-09-16T00:02:22.239Z,8.23
2022-09-16T00:04:48.855Z,7.17
2022-09-16T00:07:15.408Z,6.30
2022-09-16T00:09:41.984Z,4.30
2022-09-16T00:12:08.745Z,5.40
2022-09-16T00:14:35.326Z,4.07
2022-09-16T00:17:01.960Z,4.07
2022-09-16T00:19:28.610Z,6.60
2022-09-16T00:21:55.159Z,3.53
2022-09-16T00:24:21.755Z,6.27
2022-09-16T00:26:48.303Z,5.57
2022-09-16T00:29:14.882Z,4.00
2022-09-16T00:31:41.542Z,4.03
2022-09-16T00:34:08.138Z,5.07
2022-09-16T00:36:34.723Z,7.00
2022-09-16T00:39:01.305Z,8.30
2022-09-16T00:41:32.991Z,6.23
2022-09-16T00:44:06.995Z,5.97
2022-09-16T00:46:43.630Z,8.57
2022-09-16T00:49:20.511Z,8.10
2022-09-16T00:51:50.932Z,11.33
2022-09-16T00:54:19.835Z,8.70
2022-09-16T00:56:50.887Z,6.67
2022-09-16T00:59:21.817Z,5.83
2022-09-16T01:01:49.210Z,5.13
2022-09-16T01:04:30.757Z,6.13
2022-09-16T01:06:57.711Z,6.07
2022-09-16T01:09:26.561Z,4.83
2022-09-16T01:11:53.178Z,4.80
2022-09-16T01:14:41.424Z,3.53
2022-09-16T01:17:40.436Z,5.30
2022-09-16T01:20:07.115Z,6.50
2022-09-16T01:22:58.230Z,5.13
2022-09-16T01:25:46.574Z,10.30
2022-09-16T01:28:28.531Z,4.67
2022-09-16T01:31:18.410Z,4.77
2022-09-16T01:33:56.665Z,3.33
2022-09-16T01:36:53.377Z,4.33
2022-09-16T01:39:35.732Z,5.73
2022-09-16T01:42:10.907Z,6.03
2022-09-16T01:44:39.249Z,5.23
2022-09-16T01:47:10.525Z,4.13
2022-09-16T01:49:54.885Z,3.50
2022-09-16T01:52:31.307Z,4.13
2022-09-16T01:55:11.602Z,4.40
2022-09-16T01:58:18.345Z,4.20
2022-09-16T02:00:47.233Z,4.67
2022-09-16T02:03:26.434Z,5.63
2022-09-16T02:06:03.245Z,4.13
2022-09-16T02:08:38.454Z,9.20
2022-09-16T02:11:08.815Z,4.03
2022-09-16T02:13:47.018Z,4.23
2022-09-16T02:16:22.772Z,4.10
2022-09-16T02:18:55.264Z,6.37
2022-09-16T02:21:25.197Z,5.27
2022-09-16T02:23:57.644Z,6.23
2022-09-16T02:26:28.887Z,3.77
2022-09-16T02:28:56.506Z,6.00
2022-09-16T02:31:30.043Z,5.43
2022-09-16T02:34:02.636Z,4.53
2022-09-16T02:36:31.685Z,3.70
2022-09-16T02:39:08.470Z,4.60
2022-09-16T02:41:39.601Z,5.30
2022-09-16T02:44:07.418Z,4.47
2022-09-16T02:46:58.111Z,4.90
2022-09-16T02:49:44.099Z,4.07
2022-09-16T02:52:36.865Z,4.97
2022-09-16T02:55:22.363Z,3.77
2022-09-16T02:57:50.309Z,4.47
2022-09-16T03:00:17.305Z,4.53
2022-09-16T03:02:44.542Z,3.10
2022-09-16T03:05:11.207Z,5.40
2022-09-16T03:07:40.484Z,4.30
2022-09-16T03:10:10.177Z,3.73
2022-09-16T03:12:57.945Z,4.17
2022-09-16T03:15:48.533Z,3.33
2022-09-16T03:18:27.412Z,4.50
2022-09-16T03:21:05.055Z,5.03
2022-09-16T03:23:44.509Z,2.13
2022-09-16T03:26:22.299Z,4.13
2022-09-16T03:29:05.524Z,3.37
2022-09-16T03:32:00.667Z,4.00
2022-09-16T03:34:35.201Z,5.30
2022-09-16T03:37:06.394Z,2.20
2022-09-16T03:39:34.302Z,5.40
2022-09-16T03:42:07.625Z,4.10
2022-09-16T03:44:36.323Z,5.13
2022-09-16T03:47:04.075Z,5.73
2022-09-16T03:49:30.827Z,5.80
2022-09-16T03:51:58.404Z,4.17
2022-09-16T03:54:25.641Z,4.43
2022-09-16T03:56:52.205Z,5.03
2022-09-16T03:59:19.407Z,8.43
2022-09-16T04:01:46.931Z,10.23
2022-09-16T04:04:13.733Z,5.23
2022-09-16T04:06:40.619Z,5.63
2022-09-16T04:09:08.263Z,6.57
2022-09-16T04:11:35.116Z,5.00
2022-09-16T04:14:01.708Z,4.93
2022-09-16T04:16:28.305Z,4.43
2022-09-16T04:18:54.908Z,4.13
2022-09-16T04:21:21.583Z,5.17
2022-09-16T04:23:48.742Z,2.37
2022-09-16T04:26:16.157Z,4.00
2022-09-16T04:28:43.107Z,4.90
2022-09-16T04:31:14.715Z,4.70
2022-09-16T04:33:41.905Z,4.43
2022-09-16T04:36:13.843Z,4.50
2022-09-16T04:38:45.377Z,5.30
2022-09-16T04:41:14.618Z,7.07
2022-09-16T04:43:41.794Z,6.63
2022-09-16T04:46:08.879Z,7.33
2022-09-16T04:48:36.243Z,6.63
2022-09-16T04:51:08.719Z,3.30
2022-09-16T04:53:36.296Z,7.83
2022-09-16T04:56:15.864Z,6.40
2022-09-16T04:58:43.783Z,5.53
2022-09-16T05:01:13.452Z,3.53
2022-09-16T05:03:45.262Z,4.57
2022-09-16T05:06:20.333Z,6.13
2022-09-16T05:08:48.544Z,4.10
2022-09-16T05:11:19.086Z,5.60
2022-09-16T05:13:46.435Z,7.03
2022-09-16T05:16:16.537Z,3.23
2022-09-16T05:18:45.017Z,6.10
2022-09-16T05:21:13.937Z,5.13
2022-09-16T05:23:45.968Z,4.80
2022-09-16T05:26:17.105Z,9.10
2022-09-16T05:28:44.370Z,5.70
2022-09-16T05:31:16.576Z,5.73
2022-09-16T05:33:46.419Z,5.03
2022-09-16T05:36:17.893Z,8.10
2022-09-16T05:39:04.737Z,6.17
2022-09-16T05:41:32.223Z,7.67
2022-09-16T05:44:00.678Z,8.33
2022-09-16T05:46:28.416Z,6.90
2022-09-16T05:48:56.312Z,6.63
2022-09-16T05:51:24.279Z,6.87
2022-09-16T05:53:51.901Z,7.27
2022-09-16T05:56:25.709Z,6.60
2022-09-16T05:58:57.324Z,7.07
2022-09-16T06:01:27.119Z,4.07
2022-09-16T06:03:55.019Z,5.77
2022-09-16T06:06:24.663Z,10.40
2022-09-16T06:08:52.843Z,6.23
2022-09-16T06:11:20.082Z,4.13
2022-09-16T06:13:47.329Z,6.93
2022-09-16T06:16:14.582Z,6.27
2022-09-16T06:18:41.300Z,6.50
2022-09-16T06:21:10.701Z,6.47
2022-09-16T06:23:38.501Z,7.63
2022-09-16T06:26:11.088Z,6.90
2022-09-16T06:28:37.836Z,7.47
2022-09-16T06:31:19.151Z,4.90
2022-09-16T06:33:46.347Z,6.37
2022-09-16T06:36:17.648Z,7.53
2022-09-16T06:38:45.580Z,8.97
2022-09-16T06:41:13.368Z,6.77
2022-09-16T06:43:40.577Z,5.67
2022-09-16T06:46:13.465Z,11.17
2022-09-16T06:48:41.120Z,6.70
2022-09-16T06:51:11.547Z,7.77
2022-09-16T06:53:38.713Z,6.17
2022-09-16T06:56:07.879Z,7.97
2022-09-16T06:58:36.597Z,7.10
2022-09-16T07:01:08.010Z,6.23
2022-09-16T07:03:38.173Z,5.87
2022-09-16T07:06:05.542Z,9.27
2022-09-16T07:08:33.733Z,8.30
2022-09-16T07:11:03.326Z,6.63
2022-09-16T07:13:30.563Z,6.97
2022-09-16T07:16:12.917Z,7.90
2022-09-16T07:18:41.377Z,7.83
2022-09-16T07:21:11.629Z,7.60
2022-09-16T07:23:39.667Z,5.37
2022-09-16T07:26:07.381Z,5.77
2022-09-16T07:28:34.470Z,4.53
2022-09-16T07:31:03.299Z,5.37
2022-09-16T07:33:33.238Z,7.20
2022-09-16T07:36:00.350Z,10.33
2022-09-16T07:38:29.001Z,8.40
2022-09-16T07:40:55.683Z,7.50
2022-09-16T07:43:22.654Z,7.93
2022-09-16T07:45:56.622Z,5.67
2022-09-16T07:48:23.541Z,6.77
2022-09-16T07:51:01.525Z,6.27
2022-09-16T07:53:29.721Z,7.23
2022-09-16T07:56:00.782Z,7.53
2022-09-16T07:58:27.404Z,6.60
2022-09-16T08:00:54.072Z,7.30
2022-09-16T08:03:20.820Z,8.73
2022-09-16T08:05:47.458Z,9.03
2022-09-16T08:08:14.096Z,6.40
2022-09-16T08:10:41.259Z,9.97
2022-09-16T08:13:08.913Z,6.07
2022-09-16T08:15:35.849Z,8.47
2022-09-16T08:18:02.795Z,8.30
2022-09-16T08:20:29.426Z,6.97
2022-09-16T08:22:57.980Z,6.93
2022-09-16T08:25:24.859Z,5.80
2022-09-16T08:27:54.166Z,6.93
2022-09-16T08:30:22.923Z,6.87
2022-09-16T08:32:57.300Z,9.63
2022-09-16T08:35:25.580Z,8.57
2022-09-16T08:37:52.799Z,8.07
2022-09-16T08:40:23.685Z,6.03
2022-09-16T08:42:59.186Z,8.83
2022-09-16T08:45:47.800Z,9.83
2022-09-16T08:48:34.691Z,5.80
2022-09-16T08:51:02.799Z,5.97
2022-09-16T08:53:56.237Z,7.30
2022-09-16T08:56:24.596Z,9.83
2022-09-16T08:58:55.061Z,7.33
2022-09-16T09:01:50.150Z,8.17
2022-09-16T09:04:17.245Z,4.53
2022-09-16T09:07:13.004Z,10.63
2022-09-16T09:09:58.759Z,8.87
2022-09-16T09:12:49.976Z,9.10
2022-09-16T09:15:41.621Z,8.30
2022-09-16T09:18:29.168Z,12.10
2022-09-16T09:21:13.196Z,7.17
2022-09-16T09:23:46.686Z,7.33
2022-09-16T09:26:48.156Z,7.87
2022-09-16T09:29:30.943Z,9.50
2022-09-16T09:32:19.319Z,10.53
2022-09-16T09:35:27.961Z,6.50
2022-09-16T09:38:22.401Z,14.40
2022-09-16T09:40:56.536Z,9.50
2022-09-16T09:43:46.037Z,5.43
2022-09-16T09:46:35.526Z,5.47
2022-09-16T09:49:14.699Z,9.47
2022-09-16T09:51:53.743Z,6.73
2022-09-16T09:54:33.269Z,8.83
2022-09-16T09:57:05.468Z,6.83
2022-09-16T09:59:48.856Z,7.70
2022-09-16T10:02:21.397Z,5.27
2022-09-16T10:04:48.840Z,6.23
2022-09-16T10:07:19.112Z,9.07
2022-09-16T10:09:51.368Z,5.93
2022-09-16T10:12:31.067Z,7.17
2022-09-16T10:14:58.036Z,6.07
2022-09-16T10:17:25.941Z,6.83
2022-09-16T10:20:02.032Z,5.67
2022-09-16T10:22:31.720Z,8.57
2022-09-16T10:25:07.803Z,7.80
2022-09-16T10:27:36.814Z,8.33
2022-09-16T10:30:10.283Z,7.53
2022-09-16T10:32:48.376Z,7.47
2022-09-16T10:35:21.076Z,5.80
2022-09-16T10:37:57.065Z,6.23
2022-09-16T10:40:24.885Z,8.43
2022-09-16T10:42:54.529Z,6.13
2022-09-16T10:45:26.376Z,8.53
2022-09-16T10:47:56.942Z,7.13
2022-09-16T10:50:25.006Z,7.13
2022-09-16T10:52:52.066Z,6.27
2022-09-16T10:55:27.997Z,5.10
2022-09-16T10:58:17.418Z,4.90
2022-09-16T11:01:18.238Z,8.73
2022-09-16T11:04:16.628Z,6.60
2022-09-16T11:06:57.058Z,7.13
2022-09-16T11:09:50.282Z,5.50
2022-09-16T11:12:50.647Z,7.13
2022-09-16T11:15:49.414Z,10.53
2022-09-16T11:18:36.846Z,5.17
2022-09-16T11:21:31.316Z,8.13
2022-09-16T11:24:17.894Z,7.40
2022-09-16T11:26:48.663Z,7.57
2022-09-16T11:29:27.622Z,5.43
2022-09-16T11:32:15.989Z,7.53
2022-09-16T11:35:01.630Z,5.90
2022-09-16T11:38:05.474Z,4.90
2022-09-16T11:40:59.023Z,5.57
2022-09-16T11:44:03.348Z,12.20
2022-09-16T11:46:45.869Z,5.13
2022-09-16T11:49:46.674Z,4.70
2022-09-16T11:52:30.174Z,7.27
2022-09-16T11:55:15.789Z,7.70
2022-09-16T11:57:58.576Z,4.50
2022-09-16T12:00:25.542Z,7.70
2022-09-16T12:03:19.899Z,5.70
2022-09-16T12:05:53.409Z,9.57
2022-09-16T12:08:30.947Z,5.70
2022-09-16T12:11:03.460Z,5.87
2022-09-16T12:13:39.742Z,8.87
2022-09-16T12:16:14.572Z,7.63
2022-09-16T12:18:51.428Z,6.30
2022-09-16T12:21:34.221Z,7.43
2022-09-16T12:24:19.777Z,10.30
2022-09-16T12:26:54.391Z,9.23
2022-09-16T12:29:34.821Z,8.67
2022-09-16T12:32:43.754Z,8.67
2022-09-16T12:35:21.222Z,8.17
2022-09-16T12:37:50.019Z,6.87
2022-09-16T12:40:52.645Z,5.53
2022-09-16T12:44:06.372Z,7.43
2022-09-16T12:47:08.009Z,6.97
2022-09-16T12:49:56.618Z,6.20
2022-09-16T12:52:51.175Z,7.77
2022-09-16T12:55:43.091Z,9.63
2022-09-16T12:58:47.468Z,6.13
2022-09-16T13:01:39.149Z,6.87
2022-09-16T13:04:17.336Z,7.93
2022-09-16T13:06:55.836Z,7.00
2022-09-16T13:09:25.745Z,5.87
2022-09-16T13:15:08.087Z,4.60
2022-09-16T13:17:40.203Z,6.40
2022-09-16T13:20:21.451Z,8.73
2022-09-16T13:23:32.311Z,4.87
2022-09-16T13:26:00.436Z,5.23
2022-09-16T13:28:33.275Z,4.00
2022-09-16T13:31:20.088Z,7.70
2022-09-16T13:34:14.008Z,4.00
2022-09-16T13:36:40.690Z,4.20
2022-09-16T13:39:13.835Z,6.30
2022-09-16T13:41:46.125Z,8.03
2022-09-16T13:44:37.150Z,8.37
2022-09-16T13:47:09.803Z,7.87
2022-09-16T13:49:56.535Z,13.70
2022-09-16T13:52:34.534Z,8.93
2022-09-16T13:55:11.904Z,7.07
2022-09-16T13:57:58.402Z,8.57
2022-09-16T14:00:32.212Z,7.53
2022-09-16T14:03:38.186Z,9.37
2022-09-16T14:06:18.929Z,6.57
2022-09-16T14:09:12.075Z,7.43
2022-09-16T14:12:03.793Z,12.90
2022-09-16T14:14:48.648Z,5.77
2022-09-16T14:17:28.417Z,7.63
2022-09-16T14:20:00.008Z,7.23
2022-09-16T14:22:27.919Z,6.27
2022-09-16T14:25:05.956Z,5.73
2022-09-16T14:27:40.777Z,6.40
2022-09-16T14:30:15.180Z,6.57
2022-09-16T14:32:42.079Z,8.20
2022-09-16T14:35:21.184Z,4.67
2022-09-16T14:37:51.723Z,5.43
2022-09-16T14:40:22.198Z,7.13
2022-09-16T14:43:01.808Z,7.83
2022-09-16T14:45:30.345Z,6.57
2022-09-16T14:47:58.769Z,8.00
2022-09-16T14:50:30.053Z,9.23
2022-09-16T14:53:26.841Z,7.37
2022-09-16T14:56:00.464Z,10.87
2022-09-16T14:58:30.020Z,6.93
2022-09-16T15:01:14.338Z,6.03
2022-09-16T15:03:52.380Z,4.97
2022-09-16T15:06:23.376Z,7.77
2022-09-16T15:08:57.176Z,7.07
2022-09-16T15:12:46.734Z,7.27
2022-09-16T15:14:18.587Z,12.17
2022-09-16T15:16:49.103Z,5.93
2022-09-16T15:19:36.148Z,6.47
2022-09-16T15:22:03.846Z,6.43
2022-09-16T15:24:32.188Z,3.90
2022-09-16T15:26:59.939Z,6.13
2022-09-16T15:29:33.827Z,6.07
2022-09-16T15:32:23.152Z,5.03
2022-09-16T15:35:10.386Z,4.40
2022-09-16T15:37:37.110Z,6.30
2022-09-16T15:40:27.527Z,5.40
2022-09-16T15:43:18.288Z,4.43
2022-09-16T15:45:57.387Z,3.20
2022-09-16T15:48:26.784Z,4.23
2022-09-16T15:51:03.128Z,4.60
2022-09-16T15:53:29.703Z,3.83
2022-09-16T15:56:23.459Z,3.47
2022-09-16T15:58:56.642Z,5.33
2022-09-16T16:01:52.402Z,5.80
2022-09-16T16:04:34.197Z,7.00
2022-09-16T16:07:05.999Z,4.40
2022-09-16T16:09:37.442Z,3.50
2022-09-16T16:12:10.377Z,4.57
2022-09-16T16:14:38.739Z,5.33
2022-09-16T16:17:17.605Z,3.80
2022-09-16T16:19:47.264Z,4.93
2022-09-16T16:22:14.827Z,5.80
2022-09-16T16:24:42.102Z,5.70
2022-09-16T16:27:10.050Z,3.97
2022-09-16T16:29:38.681Z,5.23
2022-09-16T16:32:13.765Z,6.13
2022-09-16T16:34:46.593Z,6.17
2022-09-16T16:37:33.730Z,6.37
2022-09-16T16:40:03.020Z,6.93
2022-09-16T16:42:29.639Z,7.60
2022-09-16T16:44:56.637Z,8.93
2022-09-16T16:47:23.944Z,8.60
2022-09-16T16:49:51.674Z,7.83
2022-09-16T16:52:18.653Z,7.17
2022-09-16T16:54:45.815Z,7.70
2022-09-16T16:57:12.680Z,6.97
2022-09-16T16:59:39.279Z,8.47
2022-09-16T17:02:06.274Z,12.03
2022-09-16T17:04:32.954Z,7.40
2022-09-16T17:07:21.838Z,9.90
2022-09-16T17:09:46.316Z,9.90
2022-09-16T17:12:12.973Z,14.70
2022-09-16T17:14:39.849Z,14.87
2022-09-16T17:17:06.552Z,12.83
2022-09-16T17:19:33.236Z,11.87
2022-09-16T17:21:59.842Z,13.90
2022-09-16T17:24:26.452Z,15.80
2022-09-16T17:26:53.092Z,15.70
2022-09-16T17:29:19.742Z,15.27
2022-09-16T17:31:46.445Z,15.03
2022-09-16T17:34:15.540Z,12.77
2022-09-16T17:36:45.494Z,9.03
2022-09-16T17:39:15.469Z,14.53
2022-09-16T17:41:43.520Z,11.20
2022-09-16T17:44:12.329Z,11.17
2022-09-16T17:46:40.357Z,13.43
2022-09-16T17:49:12.955Z,11.77
2022-09-16T17:51:39.556Z,11.67
2022-09-16T17:54:06.739Z,13.07
2022-09-16T17:56:33.357Z,14.83
2022-09-16T17:59:00.113Z,12.93
2022-09-16T18:01:27.133Z,13.73
2022-09-16T18:03:55.801Z,10.73
2022-09-16T18:06:26.513Z,10.00
2022-09-16T18:08:53.176Z,11.03
2022-09-16T18:11:21.023Z,11.37
2022-09-16T18:13:48.820Z,10.07
2022-09-16T18:16:18.896Z,8.90
2022-09-16T18:18:49.703Z,11.07
2022-09-16T18:21:18.205Z,11.97
2022-09-16T18:23:45.065Z,13.17
2022-09-16T18:26:13.409Z,10.90
2022-09-16T18:29:08.051Z,10.63
2022-09-16T18:31:29.760Z,9.53
2022-09-16T18:33:56.896Z,10.97
2022-09-16T18:36:26.005Z,9.83
2022-09-16T18:38:57.210Z,9.57
2022-09-16T18:41:29.439Z,9.57
2022-09-16T18:43:59.197Z,11.40
2022-09-16T18:46:28.868Z,11.87
2022-09-16T18:48:55.923Z,10.40
2022-09-16T18:51:32.929Z,10.93
2022-09-16T18:54:02.192Z,9.27
2022-09-16T18:56:31.948Z,9.77
2022-09-16T19:01:53.122Z,12.07
2022-09-16T19:04:22.609Z,10.30
2022-09-16T19:06:51.551Z,9.87
2022-09-16T19:09:20.657Z,10.90
2022-09-16T19:11:47.941Z,9.70
2022-09-16T19:14:15.046Z,12.63
2022-09-16T19:16:43.041Z,8.47
2022-09-16T19:19:11.684Z,9.63
2022-09-16T19:21:38.553Z,8.77
2022-09-16T19:24:08.131Z,7.90
2022-09-16T19:26:37.136Z,9.50
2022-09-16T19:29:06.683Z,10.97
2022-09-16T19:31:35.775Z,8.73
2022-09-16T19:34:02.674Z,9.47
2022-09-16T19:36:31.293Z,13.93
2022-09-16T19:38:59.108Z,13.10
2022-09-16T19:41:28.061Z,12.20
2022-09-16T19:44:01.284Z,12.43
2022-09-16T19:46:29.689Z,9.97
2022-09-16T19:48:56.420Z,11.60
2022-09-16T19:51:24.825Z,9.57
2022-09-16T19:53:53.133Z,9.73
2022-09-16T19:56:22.693Z,10.13
2022-09-16T19:58:50.989Z,11.30
2022-09-16T20:01:20.363Z,11.03
2022-09-16T20:03:49.209Z,12.67
2022-09-16T20:06:18.481Z,10.67
2022-09-16T20:08:46.751Z,11.07
2022-09-16T20:11:13.308Z,10.17
2022-09-16T20:13:40.473Z,11.00
2022-09-16T20:16:09.307Z,12.27
2022-09-16T20:18:36.616Z,11.83
2022-09-16T20:21:17.843Z,9.43
2022-09-16T20:23:47.948Z,8.47
2022-09-16T20:26:19.593Z,10.50
2022-09-16T20:28:50.135Z,11.50
2022-09-16T20:31:25.222Z,9.20
2022-09-16T20:33:52.791Z,11.67
2022-09-16T20:36:21.999Z,11.30
2022-09-16T20:38:49.443Z,10.03
2022-09-16T20:41:19.831Z,13.10
2022-09-16T20:43:47.084Z,9.33
2022-09-16T20:46:21.457Z,10.33
2022-09-16T20:48:48.859Z,9.70
2022-09-16T20:51:17.365Z,10.03
2022-09-16T20:53:45.773Z,7.87
2022-09-16T20:56:14.897Z,12.43
2022-09-16T20:58:43.748Z,13.57
2022-09-16T21:01:22.646Z,11.20
2022-09-16T21:03:54.835Z,14.17
2022-09-16T21:06:22.901Z,13.97
2022-09-16T21:08:53.649Z,9.77
2022-09-16T21:11:21.195Z,9.27
2022-09-16T21:13:54.433Z,10.90
2022-09-16T21:16:22.849Z,13.70
2022-09-16T21:18:54.565Z,11.97
2022-09-16T21:21:21.885Z,13.40
2022-09-16T21:23:49.660Z,11.07
2022-09-16T21:26:18.686Z,14.03
2022-09-16T21:28:46.932Z,11.33
2022-09-16T21:31:15.444Z,12.67
2022-09-16T21:33:44.681Z,10.93
2022-09-16T21:36:13.696Z,13.40
2022-09-16T21:38:41.388Z,10.23
2022-09-16T21:41:12.729Z,10.63
2022-09-16T21:43:42.355Z,9.03
2022-09-16T21:46:13.897Z,7.63
2022-09-16T21:48:42.372Z,12.33
2022-09-16T21:51:11.775Z,10.83
2022-09-16T21:53:42.698Z,12.67
2022-09-16T21:56:13.724Z,10.53
2022-09-16T21:58:40.916Z,10.73
2022-09-16T22:01:29.972Z,10.53
2022-09-16T22:04:14.557Z,11.37
2022-09-16T22:06:41.732Z,13.70
2022-09-16T22:09:09.848Z,13.43
2022-09-16T22:11:38.252Z,10.67
2022-09-16T22:14:05.273Z,11.93
2022-09-16T22:16:33.849Z,15.33
2022-09-16T22:19:08.166Z,18.93
2022-09-16T22:21:37.657Z,14.30
2022-09-16T22:24:05.132Z,11.87
2022-09-16T22:26:32.111Z,12.37
2022-09-16T22:28:59.691Z,11.70
2022-09-16T22:31:29.051Z,13.93
2022-09-16T22:33:57.962Z,14.27
2022-09-16T22:36:27.875Z,14.27
2022-09-16T22:39:14.844Z,15.27
2022-09-16T22:41:42.204Z,18.00
2022-09-16T22:44:08.960Z,17.00
2022-09-16T22:46:40.772Z,15.37
2022-09-16T22:49:07.453Z,16.73
2022-09-16T22:51:34.130Z,16.03
2022-09-16T22:54:00.954Z,19.83
2022-09-16T22:56:32.001Z,15.10
2022-09-16T22:59:03.523Z,18.80
2022-09-16T23:01:36.869Z,18.00
2022-09-16T23:04:05.420Z,15.97
2022-09-16T23:06:33.390Z,22.17
2022-09-16T23:09:00.902Z,18.30
2022-09-16T23:11:30.290Z,20.33
2022-09-16T23:13:58.018Z,19.67
2022-09-16T23:16:31.634Z,21.20
2022-09-16T23:19:01.010Z,18.23
2022-09-16T23:21:31.325Z,15.37
2022-09-16T23:24:00.794Z,16.90
2022-09-16T23:26:30.413Z,22.50
2022-09-16T23:29:03.735Z,21.77
2022-09-16T23:31:33.890Z,19.20
2022-09-16T23:34:01.767Z,20.83
2022-09-16T23:36:31.887Z,21.77
2022-09-16T23:39:00.439Z,20.53
2022-09-16T23:41:27.597Z,22.73
2022-09-16T23:43:56.028Z,23.73
2022-09-16T23:46:25.278Z,19.70
2022-09-16T23:48:52.047Z,19.90
2022-09-16T23:51:25.849Z,18.63
2022-09-16T23:53:55.249Z,23.93
2022-09-16T23:56:22.059Z,24.37
2022-09-16T23:58:52.029Z,24.13
